In Rescue
 
Open Full Screen Window  High Contrast Mode
Wind Gusting 15 knots
08
April 19, 2021 8:02 PM EDT
Weather Information
Wind Direction
  300 °
Wind Speed
  08 kt (9 mph)
Wind Gust
  15 kt (17 mph)
Altimeter
29.74 in
Visibility
10 SM
Temperature
01° C
34° F
Dewpoint
-05° C
23° F
Humidity
65%
1hr Rain Fall
00.00 in.
24hr Rain Fall
00.01 in.
Sky Condition
Overcast @ 3,400 ft
VFR

METAR KDRM 200002Z AUTO 30008G15KT 10SM OVC034 01/M05 A2974 RMK AO2 T00061051

FAA Disclaimer: The data displayed is for advisory purposes only and is not to be used for flight planning or operations.